createdAt,value
2023-05-02T00:02:15.446Z,96832.72
2023-05-02T00:04:45.167Z,96830.66
2023-05-02T00:07:11.983Z,96832.13
2023-05-02T00:09:38.753Z,96833.44
2023-05-02T00:12:05.486Z,96838.88
2023-05-02T00:14:32.010Z,96836.63
2023-05-02T00:16:58.713Z,96839.72
2023-05-02T00:19:25.314Z,96826.69
2023-05-02T00:21:51.909Z,96827.97
2023-05-02T00:24:18.934Z,96837.19
2023-05-02T00:26:46.242Z,96840.69
2023-05-02T00:29:12.933Z,96837.41
2023-05-02T00:31:41.244Z,96835.28
2023-05-02T00:34:07.849Z,96843.81
2023-05-02T00:36:34.390Z,96828.75
2023-05-02T00:39:00.820Z,96832.72
2023-05-02T00:41:27.542Z,96819.22
2023-05-02T00:43:54.013Z,96831.72
2023-05-02T00:46:21.360Z,96836.97
2023-05-02T00:48:48.086Z,96838.31
2023-05-02T00:51:15.361Z,96831.19
2023-05-02T00:53:42.510Z,96841.34
2023-05-02T00:56:09.877Z,96844.13
2023-05-02T00:58:47.355Z,96836.03
2023-05-02T01:01:20.525Z,96845.09
2023-05-02T01:04:05.051Z,96844.53
2023-05-02T01:10:41.985Z,96857.09
2023-05-02T01:13:25.896Z,96853.00
2023-05-02T01:15:54.061Z,96862.41
2023-05-02T01:18:25.190Z,96852.13
2023-05-02T01:20:57.449Z,96861.47
2023-05-02T01:23:53.471Z,96865.88
2023-05-02T01:26:41.506Z,96869.25
2023-05-02T01:29:15.178Z,96872.41
2023-05-02T01:31:44.711Z,96870.47
2023-05-02T01:34:18.370Z,96860.00
2023-05-02T01:36:47.113Z,96864.38
2023-05-02T01:39:17.595Z,96875.31
2023-05-02T01:41:47.038Z,96870.97
2023-05-02T01:44:17.174Z,96865.81
2023-05-02T01:46:44.591Z,96873.50
2023-05-02T01:49:11.650Z,96873.22
2023-05-02T01:51:45.402Z,96881.38
2023-05-02T01:54:15.762Z,96886.44
2023-05-02T01:56:43.658Z,96876.13
2023-05-02T01:59:14.268Z,96878.31
2023-05-02T02:01:43.644Z,96882.72
2023-05-02T02:04:13.022Z,96881.06
2023-05-02T02:06:43.595Z,96888.56
2023-05-02T02:09:10.322Z,96876.34
2023-05-02T02:11:47.249Z,96875.91
2023-05-02T02:14:33.504Z,96892.38
2023-05-02T02:17:02.568Z,96884.34
2023-05-02T02:19:30.866Z,96890.78
2023-05-02T02:22:00.809Z,96893.16
2023-05-02T02:24:28.105Z,96894.44
2023-05-02T02:26:54.577Z,96893.88
2023-05-02T02:29:21.044Z,96896.28
2023-05-02T02:31:47.496Z,96892.78
2023-05-02T02:34:13.997Z,96896.25
2023-05-02T02:37:01.705Z,96895.66
2023-05-02T02:39:42.963Z,96903.72
2023-05-02T02:42:27.616Z,96908.19
2023-05-02T02:45:17.145Z,96909.78
2023-05-02T02:48:16.321Z,96911.03
2023-05-02T02:50:59.632Z,96920.00
2023-05-02T02:53:44.526Z,96913.41
2023-05-02T02:56:18.547Z,96908.72
2023-05-02T02:59:06.598Z,96924.91
2023-05-02T03:01:36.365Z,96920.69
2023-05-02T03:04:07.124Z,96913.50
2023-05-02T03:06:34.037Z,96913.75
2023-05-02T03:09:01.620Z,96917.13
2023-05-02T03:11:29.606Z,96916.69
2023-05-02T03:13:56.312Z,96913.25
2023-05-02T03:16:39.505Z,96914.03
2023-05-02T03:19:07.573Z,96918.41
2023-05-02T03:21:34.667Z,96927.66
2023-05-02T03:24:02.832Z,96920.88
2023-05-02T03:26:37.671Z,96927.28
2023-05-02T03:29:05.302Z,96930.38
2023-05-02T03:31:35.067Z,96924.78
2023-05-02T03:34:02.784Z,96942.63
2023-05-02T03:36:29.212Z,96930.19
2023-05-02T03:38:56.010Z,96932.66
2023-05-02T03:41:22.909Z,96923.72
2023-05-02T03:43:49.372Z,96929.66
2023-05-02T03:46:15.998Z,96943.53
2023-05-02T03:48:42.810Z,96938.19
2023-05-02T03:51:10.042Z,96937.34
2023-05-02T03:53:37.997Z,96946.97
2023-05-02T03:56:20.755Z,96943.78
2023-05-02T03:58:48.777Z,96943.63
2023-05-02T04:01:16.234Z,96945.81
2023-05-02T04:03:43.534Z,96941.19
2023-05-02T04:06:10.414Z,96939.25
2023-05-02T04:08:38.952Z,96949.34
2023-05-02T04:11:05.428Z,96950.03
2023-05-02T04:13:32.041Z,96956.72
2023-05-02T04:15:58.509Z,96968.81
2023-05-02T04:18:24.970Z,96967.25
2023-05-02T04:20:51.431Z,96970.31
2023-05-02T04:23:18.017Z,96971.81
2023-05-02T04:26:02.425Z,96980.84
2023-05-02T04:28:36.326Z,96974.94
2023-05-02T04:31:04.978Z,96984.78
2023-05-02T04:33:31.700Z,96996.22
2023-05-02T04:35:58.209Z,96995.16
2023-05-02T04:38:24.830Z,96990.19
2023-05-02T04:40:52.385Z,96988.63
2023-05-02T04:43:18.874Z,96993.59
2023-05-02T04:45:45.420Z,96998.16
2023-05-02T04:48:12.244Z,96997.72
2023-05-02T04:50:38.785Z,97001.19
2023-05-02T04:53:05.373Z,97003.75
2023-05-02T04:55:31.904Z,97015.19
2023-05-02T04:57:58.340Z,97007.47
2023-05-02T05:00:24.891Z,97018.09
2023-05-02T05:02:51.823Z,97013.13
2023-05-02T05:05:18.583Z,97017.72
2023-05-02T05:07:45.481Z,97013.56
2023-05-02T05:10:12.050Z,97014.31
2023-05-02T05:12:38.647Z,97028.38
2023-05-02T05:15:05.478Z,97025.38
2023-05-02T05:17:32.114Z,97030.72
2023-05-02T05:22:38.741Z,97018.41
2023-05-02T05:25:05.965Z,97041.22
2023-05-02T05:27:35.290Z,97040.03
2023-05-02T05:30:02.313Z,97034.06
2023-05-02T05:32:29.588Z,97038.31
2023-05-02T05:34:56.247Z,97029.59
2023-05-02T05:37:27.746Z,97031.72
2023-05-02T05:39:54.190Z,97032.91
2023-05-02T05:42:20.954Z,97038.00
2023-05-02T05:44:47.419Z,97036.75
2023-05-02T05:47:19.354Z,97047.19
2023-05-02T05:49:59.094Z,97039.78
2023-05-02T05:52:26.145Z,97038.84
2023-05-02T05:54:59.712Z,97046.19
2023-05-02T05:57:26.171Z,97044.06
2023-05-02T05:59:52.699Z,97043.56
2023-05-02T06:02:35.486Z,97038.09
2023-05-02T06:05:02.116Z,97040.78
2023-05-02T06:07:28.619Z,97046.25
2023-05-02T06:09:55.101Z,97051.31
2023-05-02T06:12:21.719Z,97056.97
2023-05-02T06:14:48.170Z,97047.69
2023-05-02T06:17:14.603Z,97055.69
2023-05-02T06:19:41.152Z,97054.72
2023-05-02T06:22:07.616Z,97050.22
2023-05-02T06:24:34.183Z,97054.03
2023-05-02T06:27:01.031Z,97068.22
2023-05-02T06:29:28.584Z,97071.25
2023-05-02T06:31:57.019Z,97073.72
2023-05-02T06:34:23.860Z,97077.19
2023-05-02T06:36:54.479Z,97076.56
2023-05-02T06:39:20.979Z,97084.78
2023-05-02T06:41:59.925Z,97090.41
2023-05-02T06:44:26.355Z,97093.47
2023-05-02T06:46:52.912Z,97096.50
2023-05-02T06:49:19.348Z,97092.69
2023-05-02T06:51:45.907Z,97095.84
2023-05-02T06:54:12.723Z,97097.84
2023-05-02T06:56:40.500Z,97092.56
2023-05-02T06:59:06.954Z,97091.78
2023-05-02T07:01:33.707Z,97093.25
2023-05-02T07:04:03.959Z,97092.06
2023-05-02T07:06:31.114Z,97095.88
2023-05-02T07:08:59.701Z,97103.69
2023-05-02T07:11:27.885Z,97101.16
2023-05-02T07:13:54.573Z,97109.16
2023-05-02T07:16:21.190Z,97113.81
2023-05-02T07:18:47.656Z,97113.78
2023-05-02T07:21:14.352Z,97114.91
2023-05-02T07:23:46.780Z,97125.50
2023-05-02T07:26:13.292Z,97117.78
2023-05-02T07:28:39.728Z,97116.69
2023-05-02T07:31:06.433Z,97127.19
2023-05-02T07:33:32.916Z,97116.56
2023-05-02T07:35:59.464Z,97121.84
2023-05-02T07:38:38.878Z,97130.56
2023-05-02T07:41:05.407Z,97128.25
2023-05-02T07:43:32.254Z,97127.06
2023-05-02T07:46:04.360Z,97132.84
2023-05-02T07:48:31.177Z,97138.97
2023-05-02T07:51:06.137Z,97137.59
2023-05-02T07:53:32.644Z,97135.38
2023-05-02T07:55:59.075Z,97148.69
2023-05-02T07:58:25.574Z,97155.13
2023-05-02T08:00:52.041Z,97157.00
2023-05-02T08:03:18.662Z,97175.63
2023-05-02T08:05:45.462Z,97165.38
2023-05-02T08:08:11.976Z,97178.25
2023-05-02T08:10:38.513Z,97170.34
2023-05-02T08:13:05.101Z,97175.31
2023-05-02T08:15:31.557Z,97174.94
2023-05-02T08:17:58.102Z,97182.06
2023-05-02T08:20:24.546Z,97177.81
2023-05-02T08:22:51.448Z,97177.47
2023-05-02T08:25:17.920Z,97186.34
2023-05-02T08:27:51.208Z,97186.25
2023-05-02T08:30:17.690Z,97183.59
2023-05-02T08:32:44.248Z,97185.50
2023-05-02T08:35:12.740Z,97192.63
2023-05-02T08:37:39.698Z,97195.81
2023-05-02T08:40:11.428Z,97192.59
2023-05-02T08:42:41.248Z,97191.38
2023-05-02T08:45:09.087Z,97198.28
2023-05-02T08:47:40.337Z,97198.75
2023-05-02T08:50:07.897Z,97207.91
2023-05-02T08:52:34.651Z,97203.69
2023-05-02T08:55:02.266Z,97201.53
2023-05-02T08:57:36.279Z,97225.81
2023-05-02T09:00:02.878Z,97215.00
2023-05-02T09:02:45.255Z,97220.44
2023-05-02T09:05:12.870Z,97213.72
2023-05-02T09:07:47.634Z,97225.72
2023-05-02T09:10:15.294Z,97223.25
2023-05-02T09:12:42.104Z,97221.25
2023-05-02T09:15:18.248Z,97217.88
2023-05-02T09:17:48.221Z,97228.91
2023-05-02T09:20:16.419Z,97224.94
2023-05-02T09:22:50.966Z,97230.63
2023-05-02T09:25:18.240Z,97227.59
2023-05-02T09:27:55.886Z,97231.97
2023-05-02T09:30:23.713Z,97234.66
2023-05-02T09:32:51.866Z,97239.59
2023-05-02T09:35:36.585Z,97232.81
2023-05-02T09:38:03.793Z,97239.69
2023-05-02T09:40:32.594Z,97252.13
2023-05-02T09:42:59.325Z,97249.59
2023-05-02T09:45:26.848Z,97254.66
2023-05-02T09:47:53.765Z,97254.06
2023-05-02T09:50:40.690Z,97261.34
2023-05-02T09:53:14.344Z,97252.09
2023-05-02T09:55:40.884Z,97254.97
2023-05-02T09:58:07.692Z,97264.91
2023-05-02T10:00:41.125Z,97272.41
2023-05-02T10:03:08.624Z,97260.69
2023-05-02T10:05:39.691Z,97268.75
2023-05-02T10:08:07.787Z,97269.16
2023-05-02T10:10:37.804Z,97263.13
2023-05-02T10:13:05.845Z,97268.38
2023-05-02T10:15:43.635Z,97268.81
2023-05-02T10:18:15.989Z,97277.47
2023-05-02T10:20:51.162Z,97259.44
2023-05-02T10:23:19.580Z,97269.72
2023-05-02T10:25:46.285Z,97263.44
2023-05-02T10:28:13.213Z,97262.94
2023-05-02T10:30:40.597Z,97272.16
2023-05-02T10:33:07.281Z,97273.47
2023-05-02T10:35:36.287Z,97267.41
2023-05-02T10:38:03.723Z,97276.31
2023-05-02T10:40:31.207Z,97266.84
2023-05-02T10:42:57.914Z,97272.81
2023-05-02T10:45:31.456Z,97262.94
2023-05-02T10:48:20.919Z,97271.47
2023-05-02T10:50:49.756Z,97258.47
2023-05-02T10:53:26.254Z,97262.31
2023-05-02T10:56:14.480Z,97275.88
2023-05-02T10:58:42.330Z,97264.63
2023-05-02T11:01:37.995Z,97262.72
2023-05-02T11:04:05.518Z,97249.81
2023-05-02T11:06:34.746Z,97251.66
2023-05-02T11:09:27.717Z,97254.25
2023-05-02T11:11:57.476Z,97241.44
2023-05-02T11:14:29.740Z,97256.44
2023-05-02T11:17:04.122Z,97256.06
2023-05-02T11:19:56.527Z,97247.09
2023-05-02T11:22:27.156Z,97252.47
2023-05-02T11:24:54.314Z,97245.75
2023-05-02T11:27:33.656Z,97246.81
2023-05-02T11:30:09.293Z,97233.94
2023-05-02T11:33:05.077Z,97240.25
2023-05-02T11:35:31.716Z,97237.38
2023-05-02T11:38:05.882Z,97237.16
2023-05-02T11:40:32.616Z,97234.13
2023-05-02T11:43:00.574Z,97230.06
2023-05-02T11:45:37.199Z,97226.41
2023-05-02T11:48:07.535Z,97227.63
2023-05-02T11:50:49.536Z,97235.16
2023-05-02T11:53:19.864Z,97218.63
2023-05-02T11:56:00.432Z,97218.59
2023-05-02T11:58:33.466Z,97227.75
2023-05-02T12:01:15.417Z,97229.06
2023-05-02T12:03:42.855Z,97223.69
2023-05-02T12:06:14.685Z,97224.63
2023-05-02T12:08:43.442Z,97204.09
2023-05-02T12:11:12.771Z,97230.09
2023-05-02T12:13:46.642Z,97224.59
2023-05-02T12:16:13.626Z,97224.94
2023-05-02T12:18:40.956Z,97219.91
2023-05-02T12:21:12.797Z,97224.91
2023-05-02T12:23:40.445Z,97224.25
2023-05-02T12:26:29.460Z,97221.78
2023-05-02T12:28:58.976Z,97215.91
2023-05-02T12:31:28.198Z,97218.06
2023-05-02T12:33:57.826Z,97215.59
2023-05-02T12:36:24.692Z,97214.28
2023-05-02T12:38:59.897Z,97219.28
2023-05-02T12:41:39.654Z,97210.59
2023-05-02T12:44:07.296Z,97215.06
2023-05-02T12:46:33.905Z,97209.81
2023-05-02T12:49:06.138Z,97216.06
2023-05-02T12:51:33.103Z,97218.31
2023-05-02T12:53:59.984Z,97215.91
2023-05-02T12:56:32.130Z,97218.03
2023-05-02T12:59:05.729Z,97213.88
2023-05-02T13:01:35.697Z,97218.84
2023-05-02T13:04:02.669Z,97220.06
2023-05-02T13:06:29.253Z,97222.94
2023-05-02T13:09:01.955Z,97216.63
2023-05-02T13:11:28.458Z,97227.22
2023-05-02T13:13:55.134Z,97219.44
2023-05-02T13:16:21.793Z,97214.78
2023-05-02T13:18:48.484Z,97206.03
2023-05-02T13:21:15.074Z,97205.91
2023-05-02T13:23:41.653Z,97201.72
2023-05-02T13:26:08.201Z,97215.66
2023-05-02T13:28:35.818Z,97204.06
2023-05-02T13:31:03.743Z,97201.66
2023-05-02T13:33:30.343Z,97208.63
2023-05-02T13:35:56.843Z,97217.44
2023-05-02T13:38:23.408Z,97222.31
2023-05-02T13:40:50.001Z,97226.31
2023-05-02T13:43:16.916Z,97231.88
2023-05-02T13:45:52.263Z,97239.53
2023-05-02T13:48:18.944Z,97237.03
2023-05-02T13:50:45.739Z,97251.50
2023-05-02T13:53:12.278Z,97245.16
2023-05-02T13:55:38.752Z,97248.03
2023-05-02T13:58:05.889Z,97259.03
2023-05-02T14:00:32.663Z,97264.38
2023-05-02T14:02:59.239Z,97267.63
2023-05-02T14:05:25.945Z,97276.00
2023-05-02T14:07:52.398Z,97266.03
2023-05-02T14:10:18.913Z,97267.47
2023-05-02T14:12:45.477Z,97280.31
2023-05-02T14:15:13.284Z,97279.06
2023-05-02T14:17:39.767Z,97292.91
2023-05-02T14:20:07.998Z,97295.09
2023-05-02T14:22:39.658Z,97295.69
2023-05-02T14:25:06.641Z,97298.09
2023-05-02T14:27:40.531Z,97297.28
2023-05-02T14:30:07.792Z,97307.19
2023-05-02T14:32:34.910Z,97302.13
2023-05-02T14:35:01.804Z,97293.81
2023-05-02T14:37:28.289Z,97303.81
2023-05-02T14:39:56.296Z,97305.94
2023-05-02T14:42:23.384Z,97313.72
2023-05-02T14:44:50.046Z,97300.00
2023-05-02T14:47:16.874Z,97322.91
2023-05-02T14:49:43.585Z,97319.47
2023-05-02T14:52:10.053Z,97318.06
2023-05-02T14:54:44.630Z,97309.50
2023-05-02T14:57:11.344Z,97308.59
2023-05-02T14:59:38.862Z,97321.38
2023-05-02T15:02:05.481Z,97310.53
2023-05-02T15:04:32.336Z,97307.91
2023-05-02T15:07:04.838Z,97311.84
2023-05-02T15:09:31.495Z,97320.69
2023-05-02T15:11:58.304Z,97315.28
2023-05-02T15:14:54.509Z,97323.88
2023-05-02T15:17:21.544Z,97311.31
2023-05-02T15:19:48.073Z,97320.88
2023-05-02T15:22:16.089Z,97327.50
2023-05-02T15:24:42.567Z,97323.84
2023-05-02T15:27:09.581Z,97336.44
2023-05-02T15:29:51.374Z,97332.16
2023-05-02T15:32:17.890Z,97333.41
2023-05-02T15:34:44.706Z,97324.28
2023-05-02T15:37:11.260Z,97330.59
2023-05-02T15:39:44.740Z,97332.84
2023-05-02T15:42:11.318Z,97324.84
2023-05-02T15:44:37.931Z,97325.75
2023-05-02T15:47:05.093Z,97328.88
2023-05-02T15:49:33.155Z,97324.47
2023-05-02T15:52:00.193Z,97327.06
2023-05-02T15:54:26.907Z,97320.56
2023-05-02T15:56:53.396Z,97305.97
2023-05-02T15:59:19.974Z,97313.41
2023-05-02T16:01:46.556Z,97299.16
2023-05-02T16:04:13.218Z,97302.56
2023-05-02T16:06:43.577Z,97302.19
2023-05-02T16:09:10.729Z,97313.34
2023-05-02T16:11:37.280Z,97300.72
2023-05-02T16:14:03.957Z,97305.41
2023-05-02T16:16:30.668Z,97313.69
2023-05-02T16:18:57.269Z,97304.88
2023-05-02T16:21:23.727Z,97305.22
2023-05-02T16:23:50.319Z,97311.22
2023-05-02T16:26:16.771Z,97319.59
2023-05-02T16:28:43.277Z,97321.56
2023-05-02T16:31:11.608Z,97316.88
2023-05-02T16:33:39.295Z,97316.75
2023-05-02T16:36:06.946Z,97319.97
2023-05-02T16:38:33.556Z,97320.81
2023-05-02T16:41:08.902Z,97321.22
2023-05-02T16:43:35.486Z,97323.91
2023-05-02T16:46:03.472Z,97320.03
2023-05-02T16:48:30.361Z,97321.22
2023-05-02T16:50:57.222Z,97314.00
2023-05-02T16:53:27.915Z,97322.22
2023-05-02T16:55:54.740Z,97317.03
2023-05-02T16:58:21.638Z,97329.31
2023-05-02T17:00:48.207Z,97328.66
2023-05-02T17:03:14.959Z,97332.75
2023-05-02T17:05:41.703Z,97320.19
2023-05-02T17:08:09.274Z,97338.72
2023-05-02T17:10:39.080Z,97332.00
2023-05-02T17:13:05.896Z,97334.16
2023-05-02T17:15:38.467Z,97336.56
2023-05-02T17:18:05.163Z,97344.56
2023-05-02T17:20:32.322Z,97351.13
2023-05-02T17:23:00.575Z,97354.84
2023-05-02T17:25:27.116Z,97341.91
2023-05-02T17:27:53.774Z,97351.44
2023-05-02T17:30:20.507Z,97354.13
2023-05-02T17:32:47.222Z,97359.22
2023-05-02T17:35:14.435Z,97366.34
2023-05-02T17:37:40.981Z,97376.94
2023-05-02T17:40:17.028Z,97375.34
2023-05-02T17:42:47.678Z,97381.94
2023-05-02T17:45:14.326Z,97375.84
2023-05-02T17:47:40.982Z,97378.81
2023-05-02T17:50:08.144Z,97387.03
2023-05-02T17:52:40.940Z,97378.66
2023-05-02T17:55:08.746Z,97389.69
2023-05-02T17:57:35.421Z,97399.91
2023-05-02T18:00:04.421Z,97409.66
2023-05-02T18:02:33.544Z,97403.72
2023-05-02T18:05:03.929Z,97416.22
2023-05-02T18:07:31.818Z,97412.66
2023-05-02T18:10:02.145Z,97419.88
2023-05-02T18:12:29.082Z,97416.75
2023-05-02T18:15:00.209Z,97420.19
2023-05-02T18:17:27.996Z,97420.09
2023-05-02T18:19:54.496Z,97433.13
2023-05-02T18:22:22.002Z,97423.41
2023-05-02T18:24:53.367Z,97424.69
2023-05-02T18:27:20.004Z,97443.06
2023-05-02T18:29:48.993Z,97452.53
2023-05-02T18:32:21.744Z,97448.50
2023-05-02T18:34:48.443Z,97451.06
2023-05-02T18:37:15.970Z,97458.34
2023-05-02T18:39:44.061Z,97456.94
2023-05-02T18:42:10.990Z,97468.28
2023-05-02T18:44:37.932Z,97472.94
2023-05-02T18:47:04.592Z,97482.06
2023-05-02T18:49:31.498Z,97487.00
2023-05-02T18:52:05.213Z,97488.47
2023-05-02T18:54:33.451Z,97474.06
2023-05-02T18:57:03.728Z,97495.94
2023-05-02T18:59:30.807Z,97494.28
2023-05-02T19:01:58.201Z,97501.03
2023-05-02T19:04:31.825Z,97499.91
2023-05-02T19:06:58.386Z,97501.59
2023-05-02T19:09:26.253Z,97511.94
2023-05-02T19:11:55.037Z,97517.06
2023-05-02T19:14:21.503Z,97510.00
2023-05-02T19:16:48.015Z,97521.34
2023-05-02T19:19:14.826Z,97523.00
2023-05-02T19:21:42.193Z,97525.28
2023-05-02T19:24:08.676Z,97521.34
2023-05-02T19:26:35.133Z,97530.22
2023-05-02T19:29:01.694Z,97546.16
2023-05-02T19:31:32.219Z,97551.28
2023-05-02T19:33:58.849Z,97553.56
2023-05-02T19:36:27.358Z,97546.97
2023-05-02T19:38:58.228Z,97556.84
2023-05-02T19:41:38.379Z,97560.63
2023-05-02T19:44:05.058Z,97562.13
2023-05-02T19:46:33.789Z,97567.88
2023-05-02T19:49:00.299Z,97574.63
2023-05-02T19:51:28.129Z,97581.34
2023-05-02T19:53:54.754Z,97585.94
2023-05-02T19:56:25.327Z,97590.06
2023-05-02T19:58:51.853Z,97585.13
2023-05-02T20:01:18.467Z,97598.97
2023-05-02T20:03:45.171Z,97588.59
2023-05-02T20:06:11.964Z,97580.69
2023-05-02T20:08:38.430Z,97593.34
2023-05-02T20:11:05.283Z,97603.00
2023-05-02T20:13:37.715Z,97599.50
2023-05-02T20:16:04.453Z,97601.53
2023-05-02T20:18:33.106Z,97607.06
2023-05-02T20:20:59.538Z,97614.44
2023-05-02T20:23:28.067Z,97618.53
2023-05-02T20:25:54.777Z,97616.19
2023-05-02T20:28:26.514Z,97615.91
2023-05-02T20:30:58.710Z,97617.09
2023-05-02T20:33:30.180Z,97619.47
2023-05-02T20:36:04.055Z,97618.94
2023-05-02T20:38:30.543Z,97616.47
2023-05-02T20:40:57.521Z,97620.06
2023-05-02T20:43:29.015Z,97626.75
2023-05-02T20:45:57.652Z,97622.28
2023-05-02T20:48:24.178Z,97624.22
2023-05-02T20:50:54.443Z,97621.28
2023-05-02T20:53:23.791Z,97617.97
2023-05-02T20:55:50.980Z,97626.84
2023-05-02T20:58:17.474Z,97620.66
2023-05-02T21:00:44.055Z,97628.25
2023-05-02T21:03:10.598Z,97620.97
2023-05-02T21:05:37.129Z,97619.78
2023-05-02T21:08:09.873Z,97625.41
2023-05-02T21:10:36.424Z,97620.31
2023-05-02T21:13:08.728Z,97626.53
2023-05-02T21:15:36.021Z,97605.16
2023-05-02T21:18:04.023Z,97613.25
2023-05-02T21:20:30.800Z,97620.50
2023-05-02T21:22:57.425Z,97619.66
2023-05-02T21:26:16.795Z,97612.31
2023-05-02T21:28:43.251Z,97627.19
2023-05-02T21:31:10.738Z,97622.09
2023-05-02T21:33:38.282Z,97627.69
2023-05-02T21:36:04.976Z,97633.53
2023-05-02T21:38:31.547Z,97619.22
2023-05-02T21:41:02.179Z,97626.28
2023-05-02T21:43:29.755Z,97620.66
2023-05-02T21:45:56.274Z,97630.81
2023-05-02T21:48:22.795Z,97632.78
2023-05-02T21:50:49.797Z,97630.31
2023-05-02T21:53:16.350Z,97641.47
2023-05-02T21:55:44.865Z,97636.38
2023-05-02T21:58:12.351Z,97641.09
2023-05-02T22:00:41.005Z,97643.59
2023-05-02T22:03:11.621Z,97640.06
2023-05-02T22:05:39.933Z,97639.66
2023-05-02T22:08:11.009Z,97634.97
2023-05-02T22:10:39.374Z,97633.84
2023-05-02T22:13:09.547Z,97641.31
2023-05-02T22:15:36.768Z,97639.31
2023-05-02T22:18:06.664Z,97642.81
2023-05-02T22:20:33.341Z,97640.13
2023-05-02T22:22:59.849Z,97629.25
2023-05-02T22:25:26.389Z,97643.22
2023-05-02T22:27:52.947Z,97653.63
2023-05-02T22:30:20.675Z,97664.34
2023-05-02T22:32:47.168Z,97656.09
2023-05-02T22:35:13.712Z,97654.47
2023-05-02T22:37:40.223Z,97662.34
2023-05-02T22:40:08.426Z,97677.72
2023-05-02T22:42:34.935Z,97670.72
2023-05-02T22:45:01.846Z,97659.69
2023-05-02T22:47:29.176Z,97662.75
2023-05-02T22:50:05.038Z,97667.66
2023-05-02T22:52:37.729Z,97665.53
2023-05-02T22:55:09.263Z,97672.50
2023-05-02T22:57:36.479Z,97677.81
2023-05-02T23:00:05.397Z,97674.53
2023-05-02T23:02:32.275Z,97672.41
2023-05-02T23:05:00.854Z,97675.78
2023-05-02T23:07:27.497Z,97674.25
2023-05-02T23:09:54.150Z,97677.63
2023-05-02T23:12:20.601Z,97668.59
2023-05-02T23:14:47.099Z,97678.53
2023-05-02T23:17:13.704Z,97686.28
2023-05-02T23:19:40.291Z,97682.56
2023-05-02T23:22:06.867Z,97684.66
2023-05-02T23:24:33.479Z,97678.19
2023-05-02T23:26:59.934Z,97688.16
2023-05-02T23:29:26.397Z,97682.47
2023-05-02T23:31:54.679Z,97689.38
2023-05-02T23:34:21.932Z,97689.19
2023-05-02T23:36:52.914Z,97691.13
2023-05-02T23:39:19.480Z,97681.50
2023-05-02T23:41:45.937Z,97679.59
2023-05-02T23:44:12.433Z,97684.88
2023-05-02T23:46:38.932Z,97669.16
2023-05-02T23:49:05.410Z,97687.34
2023-05-02T23:51:32.172Z,97679.81
2023-05-02T23:53:58.972Z,97694.25
2023-05-02T23:56:26.128Z,97692.09
2023-05-02T23:58:52.679Z,97696.13
